sensor_id;sensor_type;location;lat;lon;timestamp;P1;durP1;ratioP1;P2;durP2;ratioP2
62475;SDS011;50739;45.670;11.936;2023-03-31T00:02:39;18.92;;;11.82;;
62475;SDS011;50739;45.670;11.936;2023-03-31T00:07:41;18.35;;;12.60;;
62475;SDS011;50739;45.670;11.936;2023-03-31T00:12:43;17.77;;;11.87;;
62475;SDS011;50739;45.670;11.936;2023-03-31T00:17:46;19.88;;;13.30;;
62475;SDS011;50739;45.670;11.936;2023-03-31T00:22:48;19.92;;;12.23;;
62475;SDS011;50739;45.670;11.936;2023-03-31T00:27:49;19.58;;;13.20;;
62475;SDS011;50739;45.670;11.936;2023-03-31T00:32:53;18.67;;;12.83;;
62475;SDS011;50739;45.670;11.936;2023-03-31T00:37:56;19.77;;;12.80;;
62475;SDS011;50739;45.670;11.936;2023-03-31T00:42:58;19.67;;;13.43;;
62475;SDS011;50739;45.670;11.936;2023-03-31T00:48:04;19.65;;;13.18;;
62475;SDS011;50739;45.670;11.936;2023-03-31T00:53:10;19.73;;;13.07;;
62475;SDS011;50739;45.670;11.936;2023-03-31T00:58:16;21.08;;;13.35;;
62475;SDS011;50739;45.670;11.936;2023-03-31T01:03:22;20.10;;;13.30;;
62475;SDS011;50739;45.670;11.936;2023-03-31T01:08:25;18.07;;;13.13;;
62475;SDS011;50739;45.670;11.936;2023-03-31T01:13:27;18.67;;;13.20;;
62475;SDS011;50739;45.670;11.936;2023-03-31T01:18:33;21.15;;;13.77;;
62475;SDS011;50739;45.670;11.936;2023-03-31T01:29:44;20.50;;;13.13;;
62475;SDS011;50739;45.670;11.936;2023-03-31T01:40:41;19.80;;;13.00;;
62475;SDS011;50739;45.670;11.936;2023-03-31T01:46:12;20.47;;;13.47;;
62475;SDS011;50739;45.670;11.936;2023-03-31T01:51:23;18.58;;;12.95;;
62475;SDS011;50739;45.670;11.936;2023-03-31T01:56:35;20.30;;;13.30;;
62475;SDS011;50739;45.670;11.936;2023-03-31T02:01:41;22.63;;;13.70;;
62475;SDS011;50739;45.670;11.936;2023-03-31T02:06:50;18.73;;;13.47;;
62475;SDS011;50739;45.670;11.936;2023-03-31T02:11:57;20.63;;;13.77;;
62475;SDS011;50739;45.670;11.936;2023-03-31T02:17:00;24.38;;;14.90;;
62475;SDS011;50739;45.670;11.936;2023-03-31T02:22:03;23.10;;;14.60;;
62475;SDS011;50739;45.670;11.936;2023-03-31T02:27:11;29.08;;;16.30;;
62475;SDS011;50739;45.670;11.936;2023-03-31T02:32:20;23.15;;;14.40;;
62475;SDS011;50739;45.670;11.936;2023-03-31T02:37:23;23.67;;;14.87;;
62475;SDS011;50739;45.670;11.936;2023-03-31T02:42:27;21.50;;;15.00;;
62475;SDS011;50739;45.670;11.936;2023-03-31T02:47:29;22.35;;;14.90;;
62475;SDS011;50739;45.670;11.936;2023-03-31T02:52:33;21.65;;;14.77;;
62475;SDS011;50739;45.670;11.936;2023-03-31T02:57:51;21.65;;;14.02;;
62475;SDS011;50739;45.670;11.936;2023-03-31T03:03:10;22.20;;;15.07;;
62475;SDS011;50739;45.670;11.936;2023-03-31T03:08:26;22.65;;;14.68;;
62475;SDS011;50739;45.670;11.936;2023-03-31T03:13:40;23.17;;;15.23;;
62475;SDS011;50739;45.670;11.936;2023-03-31T03:18:51;22.85;;;15.32;;
62475;SDS011;50739;45.670;11.936;2023-03-31T03:23:57;22.07;;;14.23;;
62475;SDS011;50739;45.670;11.936;2023-03-31T03:29:02;24.10;;;15.50;;
62475;SDS011;50739;45.670;11.936;2023-03-31T03:34:04;22.55;;;14.98;;
62475;SDS011;50739;45.670;11.936;2023-03-31T03:39:06;23.40;;;14.57;;
62475;SDS011;50739;45.670;11.936;2023-03-31T03:44:10;28.27;;;15.13;;
62475;SDS011;50739;45.670;11.936;2023-03-31T03:49:11;22.98;;;15.20;;
62475;SDS011;50739;45.670;11.936;2023-03-31T03:54:13;23.00;;;14.90;;
62475;SDS011;50739;45.670;11.936;2023-03-31T03:59:16;22.60;;;14.45;;
62475;SDS011;50739;45.670;11.936;2023-03-31T04:04:18;22.60;;;14.75;;
62475;SDS011;50739;45.670;11.936;2023-03-31T04:09:20;21.53;;;14.83;;
62475;SDS011;50739;45.670;11.936;2023-03-31T04:14:23;25.02;;;15.20;;
62475;SDS011;50739;45.670;11.936;2023-03-31T04:19:25;22.90;;;15.02;;
62475;SDS011;50739;45.670;11.936;2023-03-31T04:24:27;22.75;;;15.63;;
62475;SDS011;50739;45.670;11.936;2023-03-31T04:29:33;24.53;;;15.33;;
62475;SDS011;50739;45.670;11.936;2023-03-31T04:34:36;24.93;;;15.20;;
62475;SDS011;50739;45.670;11.936;2023-03-31T04:39:38;23.02;;;15.82;;
62475;SDS011;50739;45.670;11.936;2023-03-31T04:44:41;24.23;;;15.80;;
62475;SDS011;50739;45.670;11.936;2023-03-31T04:49:43;24.83;;;16.23;;
62475;SDS011;50739;45.670;11.936;2023-03-31T04:54:45;25.63;;;16.45;;
62475;SDS011;50739;45.670;11.936;2023-03-31T04:59:48;31.73;;;19.83;;
62475;SDS011;50739;45.670;11.936;2023-03-31T05:04:50;25.83;;;15.43;;
62475;SDS011;50739;45.670;11.936;2023-03-31T05:09:51;27.75;;;16.35;;
62475;SDS011;50739;45.670;11.936;2023-03-31T05:14:54;24.50;;;16.13;;
62475;SDS011;50739;45.670;11.936;2023-03-31T05:19:56;24.27;;;15.43;;
62475;SDS011;50739;45.670;11.936;2023-03-31T05:24:58;27.90;;;16.30;;
62475;SDS011;50739;45.670;11.936;2023-03-31T05:30:01;22.45;;;14.77;;
62475;SDS011;50739;45.670;11.936;2023-03-31T05:35:05;24.48;;;15.90;;
62475;SDS011;50739;45.670;11.936;2023-03-31T05:40:08;23.00;;;15.65;;
62475;SDS011;50739;45.670;11.936;2023-03-31T05:45:12;24.58;;;15.27;;
62475;SDS011;50739;45.670;11.936;2023-03-31T05:50:14;24.08;;;14.65;;
62475;SDS011;50739;45.670;11.936;2023-03-31T05:55:16;24.13;;;15.52;;
62475;SDS011;50739;45.670;11.936;2023-03-31T06:00:19;26.23;;;15.05;;
62475;SDS011;50739;45.670;11.936;2023-03-31T06:05:22;23.35;;;15.13;;
62475;SDS011;50739;45.670;11.936;2023-03-31T06:10:25;24.65;;;15.32;;
62475;SDS011;50739;45.670;11.936;2023-03-31T06:15:28;25.95;;;15.75;;
62475;SDS011;50739;45.670;11.936;2023-03-31T06:20:30;24.90;;;15.60;;
62475;SDS011;50739;45.670;11.936;2023-03-31T06:25:32;25.17;;;15.65;;
62475;SDS011;50739;45.670;11.936;2023-03-31T06:30:35;26.83;;;15.52;;
62475;SDS011;50739;45.670;11.936;2023-03-31T06:35:38;24.50;;;15.20;;
62475;SDS011;50739;45.670;11.936;2023-03-31T06:40:40;37.88;;;17.50;;
62475;SDS011;50739;45.670;11.936;2023-03-31T06:45:44;30.83;;;16.38;;
62475;SDS011;50739;45.670;11.936;2023-03-31T06:50:46;29.17;;;15.18;;
62475;SDS011;50739;45.670;11.936;2023-03-31T06:55:47;29.27;;;15.55;;
62475;SDS011;50739;45.670;11.936;2023-03-31T07:00:51;34.88;;;16.35;;
62475;SDS011;50739;45.670;11.936;2023-03-31T07:05:53;44.28;;;18.17;;
62475;SDS011;50739;45.670;11.936;2023-03-31T07:10:56;33.15;;;16.00;;
62475;SDS011;50739;45.670;11.936;2023-03-31T07:16:00;41.17;;;16.40;;
62475;SDS011;50739;45.670;11.936;2023-03-31T07:21:04;40.53;;;17.37;;
62475;SDS011;50739;45.670;11.936;2023-03-31T07:26:06;37.78;;;17.17;;
62475;SDS011;50739;45.670;11.936;2023-03-31T07:31:13;36.33;;;16.35;;
62475;SDS011;50739;45.670;11.936;2023-03-31T07:36:15;34.90;;;16.13;;
62475;SDS011;50739;45.670;11.936;2023-03-31T07:41:18;35.27;;;15.87;;
62475;SDS011;50739;45.670;11.936;2023-03-31T07:46:23;35.10;;;16.38;;
62475;SDS011;50739;45.670;11.936;2023-03-31T07:51:27;35.85;;;16.17;;
62475;SDS011;50739;45.670;11.936;2023-03-31T07:56:29;35.63;;;16.67;;
62475;SDS011;50739;45.670;11.936;2023-03-31T08:01:32;34.72;;;16.27;;
62475;SDS011;50739;45.670;11.936;2023-03-31T08:06:34;38.17;;;16.50;;
62475;SDS011;50739;45.670;11.936;2023-03-31T08:11:35;39.47;;;17.07;;
62475;SDS011;50739;45.670;11.936;2023-03-31T08:16:38;37.38;;;16.65;;
62475;SDS011;50739;45.670;11.936;2023-03-31T08:21:40;34.27;;;15.90;;
62475;SDS011;50739;45.670;11.936;2023-03-31T08:26:42;32.55;;;15.90;;
62475;SDS011;50739;45.670;11.936;2023-03-31T08:31:46;34.05;;;16.23;;
62475;SDS011;50739;45.670;11.936;2023-03-31T08:36:48;32.13;;;17.17;;
62475;SDS011;50739;45.670;11.936;2023-03-31T08:41:53;47.83;;;19.27;;
62475;SDS011;50739;45.670;11.936;2023-03-31T08:46:59;33.10;;;17.23;;
62475;SDS011;50739;45.670;11.936;2023-03-31T08:52:04;34.13;;;17.73;;
62475;SDS011;50739;45.670;11.936;2023-03-31T08:57:11;33.77;;;16.87;;
62475;SDS011;50739;45.670;11.936;2023-03-31T09:02:23;33.13;;;16.98;;
62475;SDS011;50739;45.670;11.936;2023-03-31T09:07:32;28.77;;;15.50;;
62475;SDS011;50739;45.670;11.936;2023-03-31T09:12:43;30.02;;;15.35;;
62475;SDS011;50739;45.670;11.936;2023-03-31T09:17:52;25.35;;;14.48;;
62475;SDS011;50739;45.670;11.936;2023-03-31T09:22:59;27.65;;;15.05;;
62475;SDS011;50739;45.670;11.936;2023-03-31T09:28:03;27.55;;;14.82;;
62475;SDS011;50739;45.670;11.936;2023-03-31T09:33:16;27.98;;;14.52;;
62475;SDS011;50739;45.670;11.936;2023-03-31T09:38:19;26.02;;;15.07;;
62475;SDS011;50739;45.670;11.936;2023-03-31T09:43:21;27.63;;;14.48;;
62475;SDS011;50739;45.670;11.936;2023-03-31T09:48:27;27.50;;;14.45;;
62475;SDS011;50739;45.670;11.936;2023-03-31T09:53:34;26.60;;;14.45;;
62475;SDS011;50739;45.670;11.936;2023-03-31T09:58:40;29.15;;;17.17;;
62475;SDS011;50739;45.670;11.936;2023-03-31T10:03:46;29.20;;;16.88;;
62475;SDS011;50739;45.670;11.936;2023-03-31T10:08:51;25.73;;;15.13;;
62475;SDS011;50739;45.670;11.936;2023-03-31T10:13:58;26.55;;;15.38;;
62475;SDS011;50739;45.670;11.936;2023-03-31T10:19:17;26.73;;;15.25;;
62475;SDS011;50739;45.670;11.936;2023-03-31T10:24:21;27.02;;;14.80;;
62475;SDS011;50739;45.670;11.936;2023-03-31T10:29:30;30.20;;;16.13;;
62475;SDS011;50739;45.670;11.936;2023-03-31T10:34:35;32.38;;;17.08;;
62475;SDS011;50739;45.670;11.936;2023-03-31T10:39:41;34.47;;;18.17;;
62475;SDS011;50739;45.670;11.936;2023-03-31T10:44:45;33.88;;;18.30;;
62475;SDS011;50739;45.670;11.936;2023-03-31T10:49:49;41.00;;;20.77;;
62475;SDS011;50739;45.670;11.936;2023-03-31T10:54:57;41.47;;;19.55;;
62475;SDS011;50739;45.670;11.936;2023-03-31T11:00:02;36.60;;;19.10;;
62475;SDS011;50739;45.670;11.936;2023-03-31T11:05:15;35.03;;;17.67;;
62475;SDS011;50739;45.670;11.936;2023-03-31T11:10:28;35.83;;;17.45;;
62475;SDS011;50739;45.670;11.936;2023-03-31T11:15:37;41.47;;;19.67;;
62475;SDS011;50739;45.670;11.936;2023-03-31T11:20:50;35.33;;;18.47;;
62475;SDS011;50739;45.670;11.936;2023-03-31T11:25:59;38.38;;;18.70;;
62475;SDS011;50739;45.670;11.936;2023-03-31T11:31:10;38.50;;;19.02;;
62475;SDS011;50739;45.670;11.936;2023-03-31T11:36:30;35.15;;;19.02;;
62475;SDS011;50739;45.670;11.936;2023-03-31T11:41:52;34.17;;;18.77;;
62475;SDS011;50739;45.670;11.936;2023-03-31T11:46:58;39.03;;;19.20;;
62475;SDS011;50739;45.670;11.936;2023-03-31T11:52:07;35.95;;;19.38;;
62475;SDS011;50739;45.670;11.936;2023-03-31T11:57:16;33.25;;;18.60;;
62475;SDS011;50739;45.670;11.936;2023-03-31T12:02:22;38.30;;;19.90;;
62475;SDS011;50739;45.670;11.936;2023-03-31T12:07:35;34.83;;;19.13;;
62475;SDS011;50739;45.670;11.936;2023-03-31T12:12:42;35.97;;;20.10;;
62475;SDS011;50739;45.670;11.936;2023-03-31T12:17:47;36.38;;;19.08;;
62475;SDS011;50739;45.670;11.936;2023-03-31T12:22:56;35.58;;;19.35;;
62475;SDS011;50739;45.670;11.936;2023-03-31T12:28:00;34.70;;;19.45;;
62475;SDS011;50739;45.670;11.936;2023-03-31T12:33:04;30.47;;;18.20;;
62475;SDS011;50739;45.670;11.936;2023-03-31T12:38:14;27.77;;;17.67;;
62475;SDS011;50739;45.670;11.936;2023-03-31T12:43:30;26.52;;;16.20;;
62475;SDS011;50739;45.670;11.936;2023-03-31T12:48:50;31.23;;;17.83;;
62475;SDS011;50739;45.670;11.936;2023-03-31T12:54:05;29.80;;;17.13;;
62475;SDS011;50739;45.670;11.936;2023-03-31T12:59:28;28.40;;;17.58;;
62475;SDS011;50739;45.670;11.936;2023-03-31T13:04:33;29.85;;;18.25;;
62475;SDS011;50739;45.670;11.936;2023-03-31T13:09:47;32.15;;;18.55;;
62475;SDS011;50739;45.670;11.936;2023-03-31T13:14:54;30.25;;;19.13;;
62475;SDS011;50739;45.670;11.936;2023-03-31T13:20:15;28.27;;;18.03;;
62475;SDS011;50739;45.670;11.936;2023-03-31T13:30:52;33.65;;;19.58;;
62475;SDS011;50739;45.670;11.936;2023-03-31T13:41:46;29.70;;;19.33;;
62475;SDS011;50739;45.670;11.936;2023-03-31T13:52:38;33.03;;;20.03;;
62475;SDS011;50739;45.670;11.936;2023-03-31T13:58:02;30.23;;;18.73;;
62475;SDS011;50739;45.670;11.936;2023-03-31T14:03:34;33.30;;;18.45;;
62475;SDS011;50739;45.670;11.936;2023-03-31T14:08:45;31.75;;;19.33;;
62475;SDS011;50739;45.670;11.936;2023-03-31T14:13:59;32.60;;;19.52;;
62475;SDS011;50739;45.670;11.936;2023-03-31T14:24:35;31.70;;;19.60;;
62475;SDS011;50739;45.670;11.936;2023-03-31T14:29:43;33.75;;;20.38;;
62475;SDS011;50739;45.670;11.936;2023-03-31T14:34:53;33.58;;;19.70;;
62475;SDS011;50739;45.670;11.936;2023-03-31T14:40:02;35.15;;;20.15;;
62475;SDS011;50739;45.670;11.936;2023-03-31T14:45:16;36.28;;;20.98;;
62475;SDS011;50739;45.670;11.936;2023-03-31T14:50:19;35.75;;;20.73;;
62475;SDS011;50739;45.670;11.936;2023-03-31T14:55:22;33.33;;;20.83;;
62475;SDS011;50739;45.670;11.936;2023-03-31T15:00:29;33.72;;;20.52;;
62475;SDS011;50739;45.670;11.936;2023-03-31T15:05:33;44.00;;;21.93;;
62475;SDS011;50739;45.670;11.936;2023-03-31T15:10:38;37.37;;;21.30;;
62475;SDS011;50739;45.670;11.936;2023-03-31T15:15:44;33.70;;;20.83;;
62475;SDS011;50739;45.670;11.936;2023-03-31T15:20:46;38.00;;;22.38;;
62475;SDS011;50739;45.670;11.936;2023-03-31T15:25:48;38.63;;;23.60;;
62475;SDS011;50739;45.670;11.936;2023-03-31T15:30:53;38.83;;;23.10;;
62475;SDS011;50739;45.670;11.936;2023-03-31T15:35:55;37.53;;;22.60;;
62475;SDS011;50739;45.670;11.936;2023-03-31T15:40:57;37.23;;;22.40;;
62475;SDS011;50739;45.670;11.936;2023-03-31T15:46:02;40.58;;;23.10;;
62475;SDS011;50739;45.670;11.936;2023-03-31T15:51:04;35.20;;;21.17;;
62475;SDS011;50739;45.670;11.936;2023-03-31T15:56:08;33.42;;;21.10;;
62475;SDS011;50739;45.670;11.936;2023-03-31T16:01:28;35.95;;;21.52;;
62475;SDS011;50739;45.670;11.936;2023-03-31T16:06:40;40.57;;;23.57;;
62475;SDS011;50739;45.670;11.936;2023-03-31T16:11:45;34.22;;;20.70;;
62475;SDS011;50739;45.670;11.936;2023-03-31T16:16:53;35.27;;;20.90;;
62475;SDS011;50739;45.670;11.936;2023-03-31T16:22:00;39.85;;;21.23;;
62475;SDS011;50739;45.670;11.936;2023-03-31T16:27:04;38.67;;;21.15;;
62475;SDS011;50739;45.670;11.936;2023-03-31T16:32:11;35.67;;;21.08;;
62475;SDS011;50739;45.670;11.936;2023-03-31T16:37:14;34.30;;;21.27;;
62475;SDS011;50739;45.670;11.936;2023-03-31T16:42:16;33.85;;;21.30;;
62475;SDS011;50739;45.670;11.936;2023-03-31T16:47:19;36.58;;;21.65;;
62475;SDS011;50739;45.670;11.936;2023-03-31T16:52:21;40.47;;;22.15;;
62475;SDS011;50739;45.670;11.936;2023-03-31T16:57:23;37.70;;;22.63;;
62475;SDS011;50739;45.670;11.936;2023-03-31T17:02:26;35.47;;;21.67;;
62475;SDS011;50739;45.670;11.936;2023-03-31T17:07:28;42.63;;;23.23;;
62475;SDS011;50739;45.670;11.936;2023-03-31T17:12:30;40.77;;;22.30;;
62475;SDS011;50739;45.670;11.936;2023-03-31T17:17:33;37.97;;;23.60;;
62475;SDS011;50739;45.670;11.936;2023-03-31T17:22:35;36.65;;;22.88;;
62475;SDS011;50739;45.670;11.936;2023-03-31T17:27:38;37.60;;;23.42;;
62475;SDS011;50739;45.670;11.936;2023-03-31T17:32:41;41.65;;;27.45;;
62475;SDS011;50739;45.670;11.936;2023-03-31T17:37:43;124.57;;;56.65;;
62475;SDS011;50739;45.670;11.936;2023-03-31T17:42:44;42.60;;;24.27;;
62475;SDS011;50739;45.670;11.936;2023-03-31T17:47:48;40.22;;;24.75;;
62475;SDS011;50739;45.670;11.936;2023-03-31T17:52:50;37.50;;;22.70;;
62475;SDS011;50739;45.670;11.936;2023-03-31T17:57:52;34.85;;;21.65;;
62475;SDS011;50739;45.670;11.936;2023-03-31T18:02:56;34.53;;;21.13;;
62475;SDS011;50739;45.670;11.936;2023-03-31T18:07:58;35.50;;;22.92;;
62475;SDS011;50739;45.670;11.936;2023-03-31T18:13:00;37.70;;;22.83;;
62475;SDS011;50739;45.670;11.936;2023-03-31T18:18:03;36.28;;;22.95;;
62475;SDS011;50739;45.670;11.936;2023-03-31T18:23:06;37.15;;;24.20;;
62475;SDS011;50739;45.670;11.936;2023-03-31T18:28:08;38.22;;;24.38;;
62475;SDS011;50739;45.670;11.936;2023-03-31T18:33:11;43.53;;;24.80;;
62475;SDS011;50739;45.670;11.936;2023-03-31T18:38:13;39.78;;;24.30;;
62475;SDS011;50739;45.670;11.936;2023-03-31T18:43:15;42.58;;;24.80;;
62475;SDS011;50739;45.670;11.936;2023-03-31T18:48:20;41.50;;;25.05;;
62475;SDS011;50739;45.670;11.936;2023-03-31T18:53:23;41.90;;;26.10;;
62475;SDS011;50739;45.670;11.936;2023-03-31T18:58:25;44.67;;;26.88;;
62475;SDS011;50739;45.670;11.936;2023-03-31T19:03:30;45.57;;;26.17;;
62475;SDS011;50739;45.670;11.936;2023-03-31T19:08:33;39.47;;;23.88;;
62475;SDS011;50739;45.670;11.936;2023-03-31T19:13:35;36.45;;;23.48;;
62475;SDS011;50739;45.670;11.936;2023-03-31T19:18:39;40.28;;;24.60;;
62475;SDS011;50739;45.670;11.936;2023-03-31T19:23:42;38.83;;;23.53;;
62475;SDS011;50739;45.670;11.936;2023-03-31T19:28:44;41.03;;;23.42;;
62475;SDS011;50739;45.670;11.936;2023-03-31T19:33:49;37.75;;;22.77;;
62475;SDS011;50739;45.670;11.936;2023-03-31T19:38:51;36.55;;;22.88;;
62475;SDS011;50739;45.670;11.936;2023-03-31T19:43:53;39.80;;;23.30;;
62475;SDS011;50739;45.670;11.936;2023-03-31T19:48:56;40.70;;;24.30;;
62475;SDS011;50739;45.670;11.936;2023-03-31T19:53:58;37.95;;;24.00;;
62475;SDS011;50739;45.670;11.936;2023-03-31T19:59:00;41.25;;;24.80;;
62475;SDS011;50739;45.670;11.936;2023-03-31T20:04:03;39.83;;;23.13;;
62475;SDS011;50739;45.670;11.936;2023-03-31T20:09:05;38.15;;;22.85;;
62475;SDS011;50739;45.670;11.936;2023-03-31T20:14:06;38.95;;;23.75;;
62475;SDS011;50739;45.670;11.936;2023-03-31T20:19:11;38.17;;;23.70;;
62475;SDS011;50739;45.670;11.936;2023-03-31T20:24:15;39.75;;;24.40;;
62475;SDS011;50739;45.670;11.936;2023-03-31T20:29:18;36.67;;;23.23;;
62475;SDS011;50739;45.670;11.936;2023-03-31T20:34:22;40.28;;;23.27;;
62475;SDS011;50739;45.670;11.936;2023-03-31T20:39:26;43.47;;;23.60;;
62475;SDS011;50739;45.670;11.936;2023-03-31T20:44:28;39.97;;;23.13;;
62475;SDS011;50739;45.670;11.936;2023-03-31T20:49:32;39.30;;;23.73;;
62475;SDS011;50739;45.670;11.936;2023-03-31T20:54:35;38.72;;;24.85;;
62475;SDS011;50739;45.670;11.936;2023-03-31T20:59:37;40.50;;;23.40;;
62475;SDS011;50739;45.670;11.936;2023-03-31T21:04:40;38.80;;;24.13;;
62475;SDS011;50739;45.670;11.936;2023-03-31T21:09:42;42.25;;;25.67;;
62475;SDS011;50739;45.670;11.936;2023-03-31T21:14:44;37.90;;;23.92;;
62475;SDS011;50739;45.670;11.936;2023-03-31T21:19:47;39.03;;;23.23;;
62475;SDS011;50739;45.670;11.936;2023-03-31T21:24:49;41.97;;;24.83;;
62475;SDS011;50739;45.670;11.936;2023-03-31T21:29:50;42.07;;;24.30;;
62475;SDS011;50739;45.670;11.936;2023-03-31T21:34:54;41.75;;;24.95;;
62475;SDS011;50739;45.670;11.936;2023-03-31T21:39:55;37.90;;;24.15;;
62475;SDS011;50739;45.670;11.936;2023-03-31T21:44:58;42.63;;;24.83;;
62475;SDS011;50739;45.670;11.936;2023-03-31T21:50:01;39.08;;;24.20;;
62475;SDS011;50739;45.670;11.936;2023-03-31T21:55:03;42.05;;;25.48;;
62475;SDS011;50739;45.670;11.936;2023-03-31T22:00:06;41.63;;;25.30;;
62475;SDS011;50739;45.670;11.936;2023-03-31T22:05:12;41.53;;;25.10;;
62475;SDS011;50739;45.670;11.936;2023-03-31T22:10:15;41.63;;;25.57;;
62475;SDS011;50739;45.670;11.936;2023-03-31T22:15:17;44.50;;;25.45;;
62475;SDS011;50739;45.670;11.936;2023-03-31T22:20:20;42.35;;;26.20;;
62475;SDS011;50739;45.670;11.936;2023-03-31T22:25:22;45.90;;;27.70;;
62475;SDS011;50739;45.670;11.936;2023-03-31T22:30:24;45.40;;;26.43;;
62475;SDS011;50739;45.670;11.936;2023-03-31T22:35:27;44.60;;;27.40;;
62475;SDS011;50739;45.670;11.936;2023-03-31T22:40:29;45.47;;;28.10;;
62475;SDS011;50739;45.670;11.936;2023-03-31T22:45:31;43.00;;;28.52;;
62475;SDS011;50739;45.670;11.936;2023-03-31T22:50:36;45.23;;;28.27;;
62475;SDS011;50739;45.670;11.936;2023-03-31T22:55:40;46.08;;;29.20;;
62475;SDS011;50739;45.670;11.936;2023-03-31T23:00:43;48.90;;;29.47;;
62475;SDS011;50739;45.670;11.936;2023-03-31T23:05:46;51.63;;;29.08;;
62475;SDS011;50739;45.670;11.936;2023-03-31T23:10:54;47.13;;;27.98;;
62475;SDS011;50739;45.670;11.936;2023-03-31T23:16:01;48.15;;;28.52;;
62475;SDS011;50739;45.670;11.936;2023-03-31T23:21:05;46.07;;;27.90;;
62475;SDS011;50739;45.670;11.936;2023-03-31T23:26:07;43.60;;;27.67;;
62475;SDS011;50739;45.670;11.936;2023-03-31T23:31:11;48.10;;;28.17;;
62475;SDS011;50739;45.670;11.936;2023-03-31T23:36:15;42.15;;;27.35;;
62475;SDS011;50739;45.670;11.936;2023-03-31T23:41:20;42.08;;;26.77;;
62475;SDS011;50739;45.670;11.936;2023-03-31T23:46:23;44.17;;;26.98;;
62475;SDS011;50739;45.670;11.936;2023-03-31T23:51:26;44.78;;;27.42;;
62475;SDS011;50739;45.670;11.936;2023-03-31T23:56:28;47.78;;;28.75;;
